Time;durP1;ratioP1;P1;durP2;ratioP2;P2;SDS_P1;SDS_P2;PMS_P1;PMS_P2;Temp;Humidity;BMP_temperature;BMP_pressure;BME280_temperature;BME280_humidity;BME280_pressure;Samples;Min_cycle;Max_cycle;Signal;HPM_P1;HPM_P2
2022/01/07 00:01:23;;;;;;;;;;;3.30;78.60;;;;;;5029226;28;19913;-86
2022/01/07 00:03:49;;;;;;;;;;;3.40;78.70;;;;;;5036950;28;19978;-85
2022/01/07 00:06:17;;;;;;;;;;;3.50;78.60;;;;;;5031001;28;21551;-88
2022/01/07 00:08:42;;;;;;;;;;;3.50;78.30;;;;;;5029491;28;20288;-87
2022/01/07 00:11:08;;;;;;;;;;;3.60;78.30;;;;;;5032895;28;19921;-86
2022/01/07 00:13:34;;;;;;;;;;;3.60;78.10;;;;;;5030545;28;19921;-87
2022/01/07 00:15:59;;;;;;;;;;;3.60;77.30;;;;;;5035888;28;19917;-85
2022/01/07 00:18:24;;;;;;;;;;;3.60;77.60;;;;;;5028981;28;19913;-87
2022/01/07 00:20:51;;;;;;;;;;;3.60;77.50;;;;;;5028458;28;20398;-87
2022/01/07 00:23:17;;;;;;;;;;;3.60;77.50;;;;;;5031834;28;19913;-87
2022/01/07 00:25:42;;;;;;;;;;;3.50;77.70;;;;;;5033185;28;20385;-87
2022/01/07 00:28:08;;;;;;;;;;;3.50;78.50;;;;;;5035628;28;19914;-88
2022/01/07 00:30:33;;;;;;;;;;;3.50;77.90;;;;;;5031373;28;20381;-87
2022/01/07 00:32:59;;;;;;;;;;;3.60;77.60;;;;;;5027156;28;20012;-87
2022/01/07 00:35:25;;;;;;;;;;;3.50;78.00;;;;;;5034528;28;19929;-87
2022/01/07 00:37:51;;;;;;;;;;;3.40;78.40;;;;;;5039554;28;19913;-87
2022/01/07 00:40:21;;;;;;;;;;;3.50;78.60;;;;;;5030839;28;19925;-87
2022/01/07 00:42:49;;;;;;;;;;;3.50;78.40;;;;;;5054885;28;19921;-87
2022/01/07 00:45:15;;;;;;;;;;;3.60;78.20;;;;;;5051907;28;20012;-87
2022/01/07 00:47:40;;;;;;;;;;;3.60;78.60;;;;;;5032539;28;19977;-86
2022/01/07 00:50:06;;;;;;;;;;;3.60;78.30;;;;;;5029333;28;19944;-86
2022/01/07 00:52:33;;;;;;;;;;;3.60;78.10;;;;;;5054998;28;19913;-86
2022/01/07 00:54:58;;;;;;;;;;;3.60;78.60;;;;;;5028104;28;20013;-85
2022/01/07 00:57:24;;;;;;;;;;;3.60;78.60;;;;;;5030488;28;20107;-86
2022/01/07 00:59:49;;;;;;;;;;;3.50;78.70;;;;;;5027896;28;19968;-85
2022/01/07 01:02:15;;;;;;;;;;;3.60;78.50;;;;;;5022982;28;20371;-86
2022/01/07 01:04:41;;;;;;;;;;;3.50;78.60;;;;;;5047354;28;19932;-86
2022/01/07 01:07:14;;;;;;;;;;;3.50;79.10;;;;;;5030253;28;19963;-86
2022/01/07 01:09:54;;;;;;;;;;;3.60;78.50;;;;;;5030457;28;19920;-86
2022/01/07 01:12:20;;;;;;;;;;;3.60;78.40;;;;;;5030741;28;19913;-86
2022/01/07 01:14:47;;;;;;;;;;;3.70;78.10;;;;;;5030517;28;19909;-86
2022/01/07 01:17:15;;;;;;;;;;;3.60;78.20;;;;;;5054302;28;20349;-86
2022/01/07 01:19:41;;;;;;;;;;;3.70;78.20;;;;;;5026997;28;19917;-85
2022/01/07 01:22:10;;;;;;;;;;;3.70;77.70;;;;;;5046981;28;19924;-86
2022/01/07 01:24:36;;;;;;;;;;;3.60;78.40;;;;;;5030996;28;20010;-86
2022/01/07 01:27:01;;;;;;;;;;;3.70;78.10;;;;;;5038308;28;20459;-86
2022/01/07 01:29:27;;;;;;;;;;;3.80;77.90;;;;;;5075424;28;19925;-86
2022/01/07 01:31:52;;;;;;;;;;;3.60;78.00;;;;;;5056194;28;19928;-86
2022/01/07 01:34:18;;;;;;;;;;;3.70;78.10;;;;;;5054541;28;19917;-86
2022/01/07 01:36:43;;;;;;;;;;;3.60;78.30;;;;;;5047791;28;19913;-86
2022/01/07 01:39:12;;;;;;;;;;;3.60;78.30;;;;;;5042873;28;19914;-86
2022/01/07 01:41:38;;;;;;;;;;;3.70;77.90;;;;;;5057944;28;19925;-87
2022/01/07 01:44:03;;;;;;;;;;;3.70;77.70;;;;;;5040841;28;19913;-87
2022/01/07 01:46:29;;;;;;;;;;;3.80;77.90;;;;;;5038839;28;20344;-86
2022/01/07 01:48:54;;;;;;;;;;;3.80;77.50;;;;;;5037694;28;19924;-86
2022/01/07 01:51:20;;;;;;;;;;;3.80;77.40;;;;;;5039283;28;19921;-86
2022/01/07 01:53:45;;;;;;;;;;;3.80;77.30;;;;;;5032616;28;19925;-86
2022/01/07 01:56:11;;;;;;;;;;;3.80;77.20;;;;;;5033222;28;19913;-86
2022/01/07 01:58:36;;;;;;;;;;;3.80;77.40;;;;;;5036121;28;19913;-86
2022/01/07 02:01:02;;;;;;;;;;;3.80;77.30;;;;;;5037332;28;20259;-86
2022/01/07 02:03:28;;;;;;;;;;;3.80;77.70;;;;;;5036789;28;19979;-86
2022/01/07 02:05:54;;;;;;;;;;;3.80;78.00;;;;;;5037750;28;19921;-86
2022/01/07 02:08:19;;;;;;;;;;;3.80;77.20;;;;;;5036883;28;19939;-86
2022/01/07 02:10:45;;;;;;;;;;;3.80;77.20;;;;;;5050278;28;19917;-86
2022/01/07 02:13:10;;;;;;;;;;;3.90;77.50;;;;;;5047870;28;19913;-86
2022/01/07 02:15:37;;;;;;;;;;;3.80;77.10;;;;;;5037178;28;19921;-86
2022/01/07 02:18:03;;;;;;;;;;;3.90;77.20;;;;;;5035958;28;19913;-86
2022/01/07 02:20:29;;;;;;;;;;;3.90;77.70;;;;;;5037099;28;19979;-86
2022/01/07 02:22:55;;;;;;;;;;;3.70;77.50;;;;;;5037192;28;19913;-86
2022/01/07 02:25:21;;;;;;;;;;;3.70;78.00;;;;;;5052964;28;19967;-86
2022/01/07 02:27:47;;;;;;;;;;;3.80;78.20;;;;;;5037614;28;19913;-86
2022/01/07 02:30:20;;;;;;;;;;;3.80;77.70;;;;;;5036054;28;19913;-87
2022/01/07 02:32:46;;;;;;;;;;;3.80;77.90;;;;;;5031804;28;19909;-86
2022/01/07 02:35:12;;;;;;;;;;;3.80;77.40;;;;;;5057482;28;19943;-86
2022/01/07 02:37:37;;;;;;;;;;;3.60;77.80;;;;;;5058948;28;19905;-85
2022/01/07 02:40:04;;;;;;;;;;;3.80;78.50;;;;;;5042992;28;19917;-86
2022/01/07 02:42:29;;;;;;;;;;;3.80;77.70;;;;;;5036135;28;19917;-86
2022/01/07 02:44:55;;;;;;;;;;;3.80;77.70;;;;;;5052682;28;19914;-85
2022/01/07 02:47:21;;;;;;;;;;;3.80;78.20;;;;;;5050617;28;19913;-86
2022/01/07 02:49:49;;;;;;;;;;;3.80;78.10;;;;;;5038747;28;20051;-86
2022/01/07 02:52:15;;;;;;;;;;;3.70;78.90;;;;;;5069476;28;19925;-85
2022/01/07 02:54:41;;;;;;;;;;;3.80;78.80;;;;;;5052568;28;19935;-86
2022/01/07 02:57:21;;;;;;;;;;;3.80;78.80;;;;;;5034552;28;19917;-87
2022/01/07 02:59:47;;;;;;;;;;;3.70;79.20;;;;;;5028676;28;19947;-86
2022/01/07 03:02:12;;;;;;;;;;;3.70;79.90;;;;;;5033447;28;19913;-87
2022/01/07 03:04:37;;;;;;;;;;;3.60;79.80;;;;;;5033834;28;19913;-86
2022/01/07 03:07:03;;;;;;;;;;;3.60;79.70;;;;;;5032130;28;20343;-87
2022/01/07 03:09:29;;;;;;;;;;;3.60;80.10;;;;;;5032023;28;19913;-87
2022/01/07 03:11:55;;;;;;;;;;;3.50;81.00;;;;;;5032943;28;19921;-87
2022/01/07 03:14:20;;;;;;;;;;;3.50;81.40;;;;;;5034317;28;19917;-86
2022/01/07 03:16:46;;;;;;;;;;;3.40;82.30;;;;;;5053385;28;19935;-86
2022/01/07 03:19:11;;;;;;;;;;;3.40;82.40;;;;;;5038716;28;20379;-87
2022/01/07 03:21:37;;;;;;;;;;;3.40;82.50;;;;;;5032376;28;19917;-87
2022/01/07 03:24:02;;;;;;;;;;;3.40;83.00;;;;;;5031982;28;19914;-87
2022/01/07 03:26:28;;;;;;;;;;;3.40;82.70;;;;;;5029465;28;20092;-87
2022/01/07 03:28:53;;;;;;;;;;;3.40;83.50;;;;;;5016941;28;19963;-87
2022/01/07 03:31:19;;;;;;;;;;;3.30;83.20;;;;;;5032004;28;19919;-87
2022/01/07 03:33:44;;;;;;;;;;;3.40;83.30;;;;;;5032368;28;19936;-87
2022/01/07 03:36:10;;;;;;;;;;;3.30;82.80;;;;;;5046590;28;19929;-86
2022/01/07 03:38:35;;;;;;;;;;;3.40;83.20;;;;;;5035039;28;19928;-87
2022/01/07 03:41:01;;;;;;;;;;;3.30;83.30;;;;;;5031332;28;19913;-87
2022/01/07 03:43:26;;;;;;;;;;;3.30;83.80;;;;;;5032353;28;19916;-87
2022/01/07 03:45:52;;;;;;;;;;;3.30;83.80;;;;;;5031247;28;19913;-87
2022/01/07 03:48:17;;;;;;;;;;;3.30;83.80;;;;;;5048635;28;19920;-87
2022/01/07 03:50:43;;;;;;;;;;;3.20;83.90;;;;;;5031169;28;20382;-87
2022/01/07 03:53:08;;;;;;;;;;;3.20;84.30;;;;;;5034580;28;19924;-87
2022/01/07 03:55:33;;;;;;;;;;;3.20;84.40;;;;;;5054532;28;20387;-86
2022/01/07 03:57:59;;;;;;;;;;;3.10;84.90;;;;;;5039811;28;19921;-87
2022/01/07 04:00:33;;;;;;;;;;;3.10;85.20;;;;;;5047897;28;19917;-87
2022/01/07 04:03:00;;;;;;;;;;;3.10;85.30;;;;;;5062320;28;19963;-87
2022/01/07 04:05:25;;;;;;;;;;;3.20;85.20;;;;;;5041037;28;20390;-86
2022/01/07 04:07:51;;;;;;;;;;;3.20;84.90;;;;;;5032571;28;19920;-87
2022/01/07 04:10:16;;;;;;;;;;;3.10;85.20;;;;;;5031032;28;19959;-88
2022/01/07 04:12:42;;;;;;;;;;;3.20;85.40;;;;;;5030762;28;19921;-87
2022/01/07 04:15:08;;;;;;;;;;;3.00;85.80;;;;;;5021654;28;20379;-87
2022/01/07 04:17:38;;;;;;;;;;;3.00;86.20;;;;;;5030630;28;19920;-87
2022/01/07 04:20:04;;;;;;;;;;;3.10;85.70;;;;;;5030354;28;20020;-87
2022/01/07 04:22:29;;;;;;;;;;;3.00;86.20;;;;;;5029842;28;19933;-87
2022/01/07 04:24:55;;;;;;;;;;;2.90;86.60;;;;;;5030900;28;19916;-87
2022/01/07 04:27:20;;;;;;;;;;;3.00;86.80;;;;;;5030095;28;19920;-87
2022/01/07 04:29:46;;;;;;;;;;;3.10;86.40;;;;;;5031403;28;19913;-87
2022/01/07 04:32:11;;;;;;;;;;;3.00;86.60;;;;;;5046689;28;20393;-87
2022/01/07 04:34:37;;;;;;;;;;;2.90;86.70;;;;;;5031695;28;19917;-87
2022/01/07 04:37:02;;;;;;;;;;;2.90;86.40;;;;;;5031281;28;19913;-88
2022/01/07 04:39:28;;;;;;;;;;;2.90;86.60;;;;;;5027203;28;19931;-88
2022/01/07 04:41:53;;;;;;;;;;;2.90;86.70;;;;;;5020241;28;20263;-88
2022/01/07 04:44:19;;;;;;;;;;;2.90;86.60;;;;;;5034208;28;19914;-88
2022/01/07 04:46:45;;;;;;;;;;;3.00;86.50;;;;;;5029714;28;19914;-87
2022/01/07 04:49:10;;;;;;;;;;;2.90;86.60;;;;;;5032116;28;19934;-87
2022/01/07 04:51:36;;;;;;;;;;;2.90;87.00;;;;;;5030164;28;19997;-88
2022/01/07 04:54:01;;;;;;;;;;;2.90;86.40;;;;;;5040019;22;19925;-86
2022/01/07 04:56:27;;;;;;;;;;;3.00;86.40;;;;;;5016263;28;19917;-86
2022/01/07 04:58:53;;;;;;;;;;;3.10;85.90;;;;;;5025431;28;19913;-84
2022/01/07 05:01:18;;;;;;;;;;;3.00;86.20;;;;;;5037741;28;19913;-85
2022/01/07 05:03:43;;;;;;;;;;;3.10;86.00;;;;;;5049320;28;20442;-85
2022/01/07 05:06:54;;;;;;;;;;;3.00;86.50;;;;;;5004540;28;19914;-86
2022/01/07 05:08:55;;;;;;;;;;;3.10;86.20;;;;;;5014744;28;19913;-85
2022/01/07 05:11:20;;;;;;;;;;;3.10;85.40;;;;;;5014259;28;20446;-84
2022/01/07 05:13:45;;;;;;;;;;;3.10;85.50;;;;;;5014772;28;19920;-85
2022/01/07 05:16:11;;;;;;;;;;;3.10;85.30;;;;;;5011634;28;19914;-86
2022/01/07 05:18:37;;;;;;;;;;;3.10;85.60;;;;;;5043567;28;19949;-83
2022/01/07 05:21:02;;;;;;;;;;;3.10;85.40;;;;;;5013139;28;19914;-85
2022/01/07 05:23:28;;;;;;;;;;;3.10;85.50;;;;;;5013214;28;20283;-85
2022/01/07 05:25:53;;;;;;;;;;;3.10;85.70;;;;;;5010268;28;19921;-86
2022/01/07 05:28:18;;;;;;;;;;;3.10;85.10;;;;;;5027780;28;19918;-86
2022/01/07 05:30:44;;;;;;;;;;;3.10;85.50;;;;;;5042544;28;19902;-84
2022/01/07 05:33:09;;;;;;;;;;;3.10;84.90;;;;;;5029754;28;19917;-82
2022/01/07 05:35:35;;;;;;;;;;;3.10;85.10;;;;;;5022470;28;19960;-86
2022/01/07 05:38:00;;;;;;;;;;;3.20;85.00;;;;;;5015946;28;19979;-86
2022/01/07 05:40:26;;;;;;;;;;;3.20;85.00;;;;;;5013651;28;19918;-85
2022/01/07 05:42:51;;;;;;;;;;;3.30;84.80;;;;;;5014105;28;20263;-86
2022/01/07 05:45:17;;;;;;;;;;;3.20;84.60;;;;;;5013770;28;19924;-83
2022/01/07 05:47:42;;;;;;;;;;;3.20;84.70;;;;;;5013350;28;20335;-86
2022/01/07 05:50:08;;;;;;;;;;;3.20;84.70;;;;;;5011534;28;19964;-84
2022/01/07 05:52:33;;;;;;;;;;;3.30;84.50;;;;;;5014594;28;19913;-86
2022/01/07 05:54:59;;;;;;;;;;;3.30;84.40;;;;;;5013460;28;20388;-85
2022/01/07 05:57:24;;;;;;;;;;;3.30;84.90;;;;;;5014024;28;19914;-85
2022/01/07 05:59:50;;;;;;;;;;;3.20;85.10;;;;;;5012490;28;20027;-85
2022/01/07 06:02:15;;;;;;;;;;;3.30;85.50;;;;;;5021363;28;19929;-85
2022/01/07 06:04:41;;;;;;;;;;;3.30;85.50;;;;;;5011937;28;19910;-84
2022/01/07 06:07:06;;;;;;;;;;;3.10;85.80;;;;;;5012869;28;19924;-85
2022/01/07 06:09:33;;;;;;;;;;;3.20;86.00;;;;;;5012362;28;19920;-85
2022/01/07 06:11:59;;;;;;;;;;;3.10;86.00;;;;;;5013003;28;20004;-85
2022/01/07 06:14:24;;;;;;;;;;;3.20;86.20;;;;;;5016487;28;20376;-85
2022/01/07 06:16:49;;;;;;;;;;;3.10;86.30;;;;;;5016503;28;19985;-85
2022/01/07 06:19:15;;;;;;;;;;;3.00;86.60;;;;;;5061264;28;19928;-85
2022/01/07 06:21:40;;;;;;;;;;;3.00;87.00;;;;;;5015074;28;19917;-86
2022/01/07 06:24:06;;;;;;;;;;;3.00;86.90;;;;;;5013290;28;19913;-85
2022/01/07 06:26:31;;;;;;;;;;;3.00;87.30;;;;;;5013880;28;20016;-86
2022/01/07 06:28:57;;;;;;;;;;;2.90;87.40;;;;;;5014551;28;19913;-85
2022/01/07 06:31:22;;;;;;;;;;;2.90;87.20;;;;;;5030540;28;19922;-85
2022/01/07 06:33:48;;;;;;;;;;;2.90;87.90;;;;;;5016431;28;19921;-85
2022/01/07 06:36:14;;;;;;;;;;;2.90;87.90;;;;;;5013690;28;19956;-85
2022/01/07 06:38:39;;;;;;;;;;;2.90;88.50;;;;;;5015574;28;19914;-86
2022/01/07 06:41:04;;;;;;;;;;;2.90;87.90;;;;;;5017248;28;19913;-84
2022/01/07 06:43:30;;;;;;;;;;;2.80;88.10;;;;;;5016750;28;19920;-83
2022/01/07 06:45:55;;;;;;;;;;;2.80;88.20;;;;;;5006628;28;19984;-85
2022/01/07 06:48:21;;;;;;;;;;;2.80;88.30;;;;;;5010384;28;19972;-83
2022/01/07 06:50:46;;;;;;;;;;;2.90;88.40;;;;;;5007572;28;20095;-84
2022/01/07 06:53:12;;;;;;;;;;;2.80;88.40;;;;;;5008326;28;19925;-82
2022/01/07 06:55:38;;;;;;;;;;;2.80;88.40;;;;;;5008906;28;19927;-83
2022/01/07 06:58:03;;;;;;;;;;;2.80;88.50;;;;;;5009594;28;19960;-84
2022/01/07 07:00:29;;;;;;;;;;;2.90;89.00;;;;;;5008770;28;19921;-85
2022/01/07 07:02:56;;;;;;;;;;;3.00;88.60;;;;;;5008163;28;19922;-83
2022/01/07 07:05:21;;;;;;;;;;;3.00;88.20;;;;;;5007998;28;20275;-84
2022/01/07 07:07:47;;;;;;;;;;;3.00;88.40;;;;;;5009768;28;19910;-84
2022/01/07 07:10:12;;;;;;;;;;;2.90;88.40;;;;;;5007530;28;19913;-86
2022/01/07 07:12:38;;;;;;;;;;;3.00;88.20;;;;;;5009611;28;19941;-86
2022/01/07 07:15:03;;;;;;;;;;;3.00;88.30;;;;;;5008231;28;19974;-83
2022/01/07 07:17:31;;;;;;;;;;;3.00;88.00;;;;;;5008451;28;19991;-86
2022/01/07 07:19:57;;;;;;;;;;;3.00;88.30;;;;;;5009393;28;19917;-85
2022/01/07 07:22:22;;;;;;;;;;;2.90;88.40;;;;;;5009148;28;19920;-85
2022/01/07 07:24:47;;;;;;;;;;;3.00;88.30;;;;;;5009897;28;19913;-85
2022/01/07 07:27:13;;;;;;;;;;;3.00;88.50;;;;;;5010260;28;19909;-85
2022/01/07 07:29:38;;;;;;;;;;;3.10;88.60;;;;;;5012556;28;19967;-85
2022/01/07 07:32:08;;;;;;;;;;;3.00;88.50;;;;;;5008299;28;19953;-85
2022/01/07 07:37:05;;;;;;;;;;;3.00;88.60;;;;;;5017029;28;19916;-83
2022/01/07 07:39:30;;;;;;;;;;;3.00;88.50;;;;;;5013388;28;19918;-83
2022/01/07 07:41:56;;;;;;;;;;;3.10;88.50;;;;;;5010607;28;19914;-83
2022/01/07 07:44:22;;;;;;;;;;;3.10;88.40;;;;;;5011424;28;19913;-83
2022/01/07 07:46:47;;;;;;;;;;;3.10;88.20;;;;;;5019840;28;20448;-84
2022/01/07 07:49:14;;;;;;;;;;;3.20;88.10;;;;;;5009458;28;19945;-84
2022/01/07 07:51:39;;;;;;;;;;;3.30;88.00;;;;;;5010894;28;19914;-83
2022/01/07 07:54:05;;;;;;;;;;;3.30;87.80;;;;;;5011631;28;19949;-83
2022/01/07 07:56:30;;;;;;;;;;;3.30;87.80;;;;;;5010886;28;19936;-84
2022/01/07 07:58:59;;;;;;;;;;;3.30;87.80;;;;;;5014840;28;20001;-83
2022/01/07 08:01:25;;;;;;;;;;;3.30;87.60;;;;;;5012027;28;19925;-84
2022/01/07 08:03:51;;;;;;;;;;;3.30;87.60;;;;;;5012170;28;19918;-84
2022/01/07 08:06:16;;;;;;;;;;;3.30;87.50;;;;;;5008588;28;19913;-84
2022/01/07 08:08:42;;;;;;;;;;;3.30;87.80;;;;;;5011211;28;19917;-84
2022/01/07 08:11:10;;;;;;;;;;;3.40;87.70;;;;;;5009704;28;20004;-84
2022/01/07 08:16:06;;;;;;;;;;;3.30;87.60;;;;;;5008256;28;19944;-81
2022/01/07 08:18:36;;;;;;;;;;;3.40;87.80;;;;;;5009240;28;20064;-85
2022/01/07 08:21:01;;;;;;;;;;;3.40;87.90;;;;;;5020449;28;19963;-84
2022/01/07 08:23:27;;;;;;;;;;;3.40;87.80;;;;;;5007851;28;20396;-82
2022/01/07 08:25:53;;;;;;;;;;;3.40;87.70;;;;;;5008460;28;19932;-85
2022/01/07 08:28:19;;;;;;;;;;;3.50;87.40;;;;;;5010288;28;19913;-86
2022/01/07 08:36:14;;;;;;;;;;;3.60;87.10;;;;;;5016705;28;19976;-86
2022/01/07 08:38:39;;;;;;;;;;;3.50;87.10;;;;;;5014869;28;19913;-87
2022/01/07 08:41:05;;;;;;;;;;;3.60;87.30;;;;;;5051183;28;20292;-87
2022/01/07 08:43:31;;;;;;;;;;;3.70;87.30;;;;;;5009429;28;19985;-92
2022/01/07 08:45:56;;;;;;;;;;;3.60;87.30;;;;;;5010713;28;20360;-85
2022/01/07 08:48:21;;;;;;;;;;;3.70;86.70;;;;;;5014840;28;19980;-84
2022/01/07 08:50:47;;;;;;;;;;;3.70;86.60;;;;;;5011026;28;20429;-84
2022/01/07 08:53:13;;;;;;;;;;;3.70;86.20;;;;;;5013544;28;19920;-84
2022/01/07 08:55:39;;;;;;;;;;;3.70;86.40;;;;;;5022997;28;19920;-84
2022/01/07 08:58:05;;;;;;;;;;;3.60;86.20;;;;;;5013355;28;19918;-84
2022/01/07 09:00:31;;;;;;;;;;;3.60;86.70;;;;;;5011953;28;20008;-84
2022/01/07 09:02:57;;;;;;;;;;;3.70;86.40;;;;;;5025415;28;19920;-84
2022/01/07 09:05:22;;;;;;;;;;;3.70;86.40;;;;;;5049529;28;19902;-84
2022/01/07 09:07:48;;;;;;;;;;;3.70;86.40;;;;;;5033695;28;19945;-85
2022/01/07 09:10:13;;;;;;;;;;;3.80;86.50;;;;;;5037232;28;19909;-85
2022/01/07 09:12:39;;;;;;;;;;;3.80;86.40;;;;;;5023465;28;19945;-86
2022/01/07 09:15:04;;;;;;;;;;;3.80;86.60;;;;;;5026351;28;19897;-86
2022/01/07 09:17:32;;;;;;;;;;;3.80;86.40;;;;;;5024300;28;19921;-85
2022/01/07 09:19:58;;;;;;;;;;;3.80;86.50;;;;;;5029361;28;19917;-84
2022/01/07 09:22:23;;;;;;;;;;;3.90;86.30;;;;;;5034944;28;19937;-84
2022/01/07 09:24:49;;;;;;;;;;;3.90;86.40;;;;;;5021574;28;19910;-86
2022/01/07 09:27:14;;;;;;;;;;;4.00;86.30;;;;;;5026275;28;19940;-85
2022/01/07 09:29:40;;;;;;;;;;;4.00;86.20;;;;;;5030351;28;19920;-85
2022/01/07 09:32:06;;;;;;;;;;;4.10;86.10;;;;;;5043516;28;19913;-86
2022/01/07 09:34:32;;;;;;;;;;;4.10;85.80;;;;;;5016870;28;19913;-87
2022/01/07 09:36:58;;;;;;;;;;;4.10;85.80;;;;;;5017274;28;19913;-87
2022/01/07 09:39:23;;;;;;;;;;;4.10;86.00;;;;;;5017089;28;20490;-87
2022/01/07 09:41:48;;;;;;;;;;;4.30;86.00;;;;;;5013975;28;20000;-86
2022/01/07 09:44:14;;;;;;;;;;;4.30;85.90;;;;;;5014002;28;19917;-86
2022/01/07 09:46:40;;;;;;;;;;;4.30;85.30;;;;;;5030238;28;19949;-86
2022/01/07 09:49:06;;;;;;;;;;;4.30;85.30;;;;;;5014767;28;20060;-85
2022/01/07 09:51:31;;;;;;;;;;;4.40;85.40;;;;;;5016013;28;19964;-85
2022/01/07 09:54:00;;;;;;;;;;;4.30;85.20;;;;;;5015671;28;19917;-86
2022/01/07 09:56:25;;;;;;;;;;;4.20;85.30;;;;;;5013013;28;19910;-84
2022/01/07 09:58:51;;;;;;;;;;;4.20;85.40;;;;;;5039542;28;20116;-84
2022/01/07 10:01:19;;;;;;;;;;;4.10;85.50;;;;;;5032615;28;20004;-87
2022/01/07 10:03:45;;;;;;;;;;;4.20;85.80;;;;;;5015857;28;19913;-85
2022/01/07 10:06:17;;;;;;;;;;;4.10;85.20;;;;;;5017252;28;19913;-87
2022/01/07 10:08:42;;;;;;;;;;;4.10;85.30;;;;;;5015626;28;19910;-86
2022/01/07 10:11:16;;;;;;;;;;;4.10;85.40;;;;;;5021328;28;19980;-85
2022/01/07 10:13:43;;;;;;;;;;;4.10;85.30;;;;;;5052962;28;19939;-86
2022/01/07 10:16:12;;;;;;;;;;;4.20;85.10;;;;;;5029268;28;19982;-84
2022/01/07 10:18:38;;;;;;;;;;;4.30;85.20;;;;;;5019185;28;19963;-85
2022/01/07 10:21:07;;;;;;;;;;;4.30;85.00;;;;;;5017153;28;19992;-86
2022/01/07 10:23:32;;;;;;;;;;;4.30;85.00;;;;;;5043821;28;19914;-85
2022/01/07 10:25:58;;;;;;;;;;;4.20;85.30;;;;;;5007493;28;19913;-86
2022/01/07 10:28:32;;;;;;;;;;;4.30;85.10;;;;;;5016247;28;19914;-86
2022/01/07 10:31:02;;;;;;;;;;;4.40;84.70;;;;;;5011122;28;20273;-87
2022/01/07 10:33:32;;;;;;;;;;;4.50;84.80;;;;;;5016965;28;20605;-86
2022/01/07 10:36:06;;;;;;;;;;;4.50;84.60;;;;;;5028646;28;20329;-86
2022/01/07 10:38:32;;;;;;;;;;;4.50;84.80;;;;;;5009338;28;19941;-87
2022/01/07 10:40:59;;;;;;;;;;;4.40;84.50;;;;;;5018988;28;20008;-85
2022/01/07 10:43:35;;;;;;;;;;;4.40;84.90;;;;;;5020483;28;19968;-86
2022/01/07 10:46:07;;;;;;;;;;;4.40;84.80;;;;;;5044180;28;19956;-85
2022/01/07 10:48:36;;;;;;;;;;;4.50;84.60;;;;;;5010058;28;20312;-85
2022/01/07 10:51:06;;;;;;;;;;;4.50;84.60;;;;;;5017394;28;20000;-87
2022/01/07 10:53:31;;;;;;;;;;;4.50;84.80;;;;;;5019007;28;19964;-87
2022/01/07 10:55:57;;;;;;;;;;;4.60;84.80;;;;;;5022045;28;19917;-84
2022/01/07 10:58:22;;;;;;;;;;;4.60;84.70;;;;;;5033652;28;19910;-85
2022/01/07 11:00:48;;;;;;;;;;;4.60;84.70;;;;;;5029694;28;20376;-83
2022/01/07 11:03:13;;;;;;;;;;;4.60;84.90;;;;;;5015626;28;19910;-85
2022/01/07 11:05:39;;;;;;;;;;;4.70;84.50;;;;;;5013452;28;20387;-85
2022/01/07 11:08:04;;;;;;;;;;;4.80;84.30;;;;;;5013888;28;19917;-88
2022/01/07 11:10:30;;;;;;;;;;;4.80;84.70;;;;;;5014678;28;19914;-89
2022/01/07 11:12:56;;;;;;;;;;;4.80;84.30;;;;;;5013844;28;19960;-87
2022/01/07 11:15:22;;;;;;;;;;;4.80;84.60;;;;;;5013214;28;20028;-87
2022/01/07 11:17:47;;;;;;;;;;;4.80;84.90;;;;;;5011045;28;20385;-85
2022/01/07 11:20:14;;;;;;;;;;;4.80;84.90;;;;;;5040437;28;19917;-87
2022/01/07 11:22:42;;;;;;;;;;;4.80;84.90;;;;;;5013957;28;19918;-86
2022/01/07 11:25:11;;;;;;;;;;;5.00;84.60;;;;;;5046940;28;19913;-87
2022/01/07 11:27:47;;;;;;;;;;;5.00;84.30;;;;;;5046677;28;19964;-87
2022/01/07 11:30:15;;;;;;;;;;;5.00;84.10;;;;;;5011185;28;20005;-88
2022/01/07 11:32:41;;;;;;;;;;;5.00;84.30;;;;;;5018715;28;19917;-87
2022/01/07 11:35:23;;;;;;;;;;;5.10;84.20;;;;;;5032891;28;19918;-87
2022/01/07 11:37:48;;;;;;;;;;;5.10;83.90;;;;;;5016733;28;19913;-88
2022/01/07 11:40:32;;;;;;;;;;;5.10;84.10;;;;;;5031691;28;20017;-87
2022/01/07 11:42:58;;;;;;;;;;;5.20;83.80;;;;;;5031254;28;19929;-87
2022/01/07 11:45:28;;;;;;;;;;;5.30;83.50;;;;;;5015051;28;19914;-87
2022/01/07 11:47:54;;;;;;;;;;;5.40;83.50;;;;;;5015446;28;19949;-87
2022/01/07 11:50:20;;;;;;;;;;;5.40;83.10;;;;;;5017362;28;19916;-86
2022/01/07 11:52:56;;;;;;;;;;;5.40;83.20;;;;;;5021029;28;20404;-88
2022/01/07 11:55:32;;;;;;;;;;;5.40;82.80;;;;;;5015207;28;19923;-88
2022/01/07 11:58:01;;;;;;;;;;;5.40;82.90;;;;;;5012006;28;19956;-87
2022/01/07 12:00:46;;;;;;;;;;;5.30;83.30;;;;;;5012581;28;20008;-84
2022/01/07 12:03:11;;;;;;;;;;;5.40;83.20;;;;;;5031104;28;19957;-80
2022/01/07 12:05:36;;;;;;;;;;;5.30;82.90;;;;;;5014133;28;19935;-81
2022/01/07 12:08:02;;;;;;;;;;;5.30;83.40;;;;;;5013110;28;19921;-81
2022/01/07 12:10:27;;;;;;;;;;;5.40;83.80;;;;;;5025764;28;19921;-79
2022/01/07 12:13:00;;;;;;;;;;;5.50;83.50;;;;;;5058998;22;19925;-83
2022/01/07 12:15:33;;;;;;;;;;;5.50;83.10;;;;;;5066249;28;19911;-84
2022/01/07 12:18:08;;;;;;;;;;;5.50;83.10;;;;;;5049778;28;19932;-83
2022/01/07 12:20:52;;;;;;;;;;;5.50;83.30;;;;;;5054376;28;19912;-82
2022/01/07 12:23:18;;;;;;;;;;;5.70;83.00;;;;;;5044129;28;20000;-81
2022/01/07 12:25:48;;;;;;;;;;;5.60;83.20;;;;;;5035027;28;19973;-82
2022/01/07 12:28:13;;;;;;;;;;;5.60;83.10;;;;;;5034701;28;19975;-83
2022/01/07 12:30:41;;;;;;;;;;;5.50;82.90;;;;;;5036967;28;19921;-82
2022/01/07 12:33:07;;;;;;;;;;;5.50;83.30;;;;;;5033198;28;19972;-82
2022/01/07 12:35:33;;;;;;;;;;;5.40;83.20;;;;;;5036354;28;19913;-83
2022/01/07 12:37:58;;;;;;;;;;;5.40;83.60;;;;;;5035389;28;19923;-82
2022/01/07 12:40:24;;;;;;;;;;;5.30;83.70;;;;;;5036945;28;19924;-83
2022/01/07 12:42:49;;;;;;;;;;;5.40;83.80;;;;;;5039335;28;19963;-82
2022/01/07 12:45:16;;;;;;;;;;;5.50;83.70;;;;;;5040354;28;19918;-82
2022/01/07 12:47:42;;;;;;;;;;;5.60;83.00;;;;;;5045935;28;20417;-82
2022/01/07 12:50:07;;;;;;;;;;;5.50;83.30;;;;;;5031497;28;19999;-82
2022/01/07 12:52:36;;;;;;;;;;;5.40;83.40;;;;;;5032635;28;19936;-83
2022/01/07 12:55:10;;;;;;;;;;;5.50;83.50;;;;;;5035652;28;19939;-82
2022/01/07 12:57:37;;;;;;;;;;;5.60;83.50;;;;;;5034256;28;19963;-81
2022/01/07 13:00:06;;;;;;;;;;;5.50;83.40;;;;;;5044199;28;19951;-81
2022/01/07 13:02:32;;;;;;;;;;;5.60;83.70;;;;;;5051898;28;19901;-80
2022/01/07 13:05:13;;;;;;;;;;;5.50;84.50;;;;;;5043325;28;19928;-81
2022/01/07 13:07:39;;;;;;;;;;;5.50;85.00;;;;;;5035769;28;19921;-83
2022/01/07 13:10:04;;;;;;;;;;;5.50;85.30;;;;;;5050044;28;19909;-81
2022/01/07 13:12:30;;;;;;;;;;;5.60;85.20;;;;;;5043202;28;19959;-82
2022/01/07 13:14:56;;;;;;;;;;;5.70;85.00;;;;;;5036919;28;19917;-82
2022/01/07 13:17:28;;;;;;;;;;;5.70;84.80;;;;;;5040803;28;19916;-82
2022/01/07 13:19:54;;;;;;;;;;;5.80;84.30;;;;;;5038899;28;20008;-83
2022/01/07 13:22:21;;;;;;;;;;;5.70;84.20;;;;;;5045944;28;20468;-83
2022/01/07 13:24:47;;;;;;;;;;;5.70;83.80;;;;;;5054024;28;19921;-84
2022/01/07 13:27:14;;;;;;;;;;;5.60;84.10;;;;;;5048637;28;19909;-82
2022/01/07 13:29:45;;;;;;;;;;;5.60;84.10;;;;;;5039638;28;20363;-84
2022/01/07 13:32:11;;;;;;;;;;;5.60;84.40;;;;;;5040081;28;20070;-83
2022/01/07 13:34:38;;;;;;;;;;;5.60;84.00;;;;;;5040361;28;19913;-83
2022/01/07 13:37:06;;;;;;;;;;;5.60;84.10;;;;;;5034275;28;19928;-84
2022/01/07 13:39:43;;;;;;;;;;;5.60;85.20;;;;;;5048014;28;19964;-84
2022/01/07 13:42:12;;;;;;;;;;;5.50;85.80;;;;;;5037558;28;19988;-84
2022/01/07 13:44:48;;;;;;;;;;;5.50;86.30;;;;;;5033749;28;19918;-82
2022/01/07 13:47:21;;;;;;;;;;;5.50;86.60;;;;;;5026899;28;19914;-83
2022/01/07 13:49:47;;;;;;;;;;;5.30;87.20;;;;;;5034461;28;19924;-81
2022/01/07 13:52:12;;;;;;;;;;;5.30;86.80;;;;;;5033497;28;19909;-81
2022/01/07 13:54:40;;;;;;;;;;;5.20;87.10;;;;;;5044034;28;19921;-81
2022/01/07 13:57:08;;;;;;;;;;;5.20;87.20;;;;;;5053878;28;19972;-81
2022/01/07 13:59:47;;;;;;;;;;;5.10;87.30;;;;;;5063615;28;19995;-82
2022/01/07 14:02:17;;;;;;;;;;;5.20;87.70;;;;;;5041830;28;19921;-80
2022/01/07 14:04:42;;;;;;;;;;;5.30;87.90;;;;;;5031828;28;19967;-84
2022/01/07 14:07:25;;;;;;;;;;;5.30;87.60;;;;;;5042200;28;19913;-83
2022/01/07 14:10:26;;;;;;;;;;;5.30;87.80;;;;;;5036707;28;20007;-84
2022/01/07 14:12:52;;;;;;;;;;;5.40;87.90;;;;;;4964614;28;20033;-83
2022/01/07 14:15:18;;;;;;;;;;;5.30;87.60;;;;;;5021109;28;20053;-84
2022/01/07 14:17:44;;;;;;;;;;;5.30;87.90;;;;;;5034762;28;19917;-85
2022/01/07 14:20:11;;;;;;;;;;;5.40;88.00;;;;;;5041371;28;19975;-84
2022/01/07 14:22:45;;;;;;;;;;;5.40;87.60;;;;;;5036320;28;19931;-83
2022/01/07 14:25:15;;;;;;;;;;;5.50;87.90;;;;;;5032534;28;19917;-83
2022/01/07 14:27:41;;;;;;;;;;;5.50;87.90;;;;;;5019614;28;20288;-85
2022/01/07 14:30:08;;;;;;;;;;;5.50;87.80;;;;;;5038573;28;19924;-84
2022/01/07 14:32:33;;;;;;;;;;;5.50;87.70;;;;;;5043791;28;19913;-84
2022/01/07 14:35:00;;;;;;;;;;;5.50;87.80;;;;;;5048888;28;20409;-86
2022/01/07 14:37:30;;;;;;;;;;;5.10;85.10;;;;;;5041891;28;19913;-87
2022/01/07 14:39:56;;;;;;;;;;;4.70;85.30;;;;;;5032439;28;20243;-87